Time;durP1;ratioP1;P1;durP2;ratioP2;P2;SDS_P1;SDS_P2;PMS_P1;PMS_P2;Temp;Humidity;BMP_temperature;BMP_pressure;BME280_temperature;BME280_humidity;BME280_pressure;Samples;Min_cycle;Max_cycle;Signal;HPM_P1;HPM_P2
2022/11/20 00:01:14;;;;;;;1.85;1.23;;;;;;;;;;5045938;28;20423;-74
2022/11/20 00:03:41;;;;;;;2.92;1.38;;;;;;;;;;5042810;28;20056;-70
2022/11/20 00:06:10;;;;;;;2.22;1.27;;;;;;;;;;5038081;28;20051;-71
2022/11/20 00:08:37;;;;;;;5.03;1.55;;;;;;;;;;5038303;28;20501;-74
2022/11/20 00:11:23;;;;;;;1.80;1.23;;;;;;;;;;5039367;28;20672;-73
2022/11/20 00:13:51;;;;;;;2.75;1.30;;;;;;;;;;5035867;28;20056;-71
2022/11/20 00:16:20;;;;;;;3.70;1.55;;;;;;;;;;5035519;28;20106;-78
2022/11/20 00:18:47;;;;;;;3.95;1.40;;;;;;;;;;5016580;28;20064;-71
2022/11/20 00:21:25;;;;;;;4.57;1.55;;;;;;;;;;5036234;28;20060;-72
2022/11/20 00:23:54;;;;;;;3.83;1.70;;;;;;;;;;5037176;28;20061;-78
2022/11/20 00:26:21;;;;;;;4.00;1.80;;;;;;;;;;5036692;28;20056;-70
2022/11/20 00:28:58;;;;;;;3.50;1.60;;;;;;;;;;5036222;28;20644;-72
2022/11/20 00:31:24;;;;;;;5.75;1.58;;;;;;;;;;5039477;28;20474;-76
2022/11/20 00:33:50;;;;;;;2.58;1.52;;;;;;;;;;5038090;28;20060;-75
2022/11/20 00:36:21;;;;;;;2.60;1.55;;;;;;;;;;5037389;28;20038;-71
2022/11/20 00:38:51;;;;;;;2.60;1.23;;;;;;;;;;5034191;28;20600;-75
2022/11/20 00:41:17;;;;;;;1.45;0.98;;;;;;;;;;5035788;28;20049;-74
2022/11/20 00:43:43;;;;;;;4.00;1.40;;;;;;;;;;5034947;28;20044;-68
2022/11/20 00:46:21;;;;;;;2.10;1.17;;;;;;;;;;5036832;28;20080;-71
2022/11/20 00:48:47;;;;;;;1.90;1.05;;;;;;;;;;5032127;28;20126;-73
2022/11/20 00:51:15;;;;;;;2.00;1.15;;;;;;;;;;5038616;28;20067;-72
2022/11/20 00:53:42;;;;;;;1.77;1.10;;;;;;;;;;5038000;28;20049;-70
2022/11/20 00:56:11;;;;;;;1.95;1.10;;;;;;;;;;5035743;28;20049;-74
2022/11/20 00:58:39;;;;;;;3.33;1.00;;;;;;;;;;5032662;28;20055;-70
2022/11/20 01:01:10;;;;;;;2.60;1.10;;;;;;;;;;5035270;28;20148;-69
2022/11/20 01:03:39;;;;;;;2.40;1.00;;;;;;;;;;5036435;28;20414;-72
2022/11/20 01:06:09;;;;;;;2.35;1.08;;;;;;;;;;5035988;28;20134;-73
2022/11/20 01:08:36;;;;;;;1.75;1.02;;;;;;;;;;5035508;28;20161;-77
2022/11/20 01:11:11;;;;;;;2.83;1.20;;;;;;;;;;5038019;28;20055;-71
2022/11/20 01:13:38;;;;;;;2.05;0.90;;;;;;;;;;5038550;28;20056;-72
2022/11/20 01:16:12;;;;;;;3.95;1.38;;;;;;;;;;5034436;28;20040;-71
2022/11/20 01:18:41;;;;;;;2.22;1.10;;;;;;;;;;5036927;28;20049;-72
2022/11/20 01:21:20;;;;;;;2.78;0.90;;;;;;;;;;5038880;28;20068;-70
2022/11/20 01:23:47;;;;;;;4.15;1.00;;;;;;;;;;5039734;28;20049;-67
2022/11/20 01:26:17;;;;;;;2.20;1.20;;;;;;;;;;5036511;28;20048;-75
2022/11/20 01:28:43;;;;;;;2.03;0.90;;;;;;;;;;5027579;28;20064;-72
2022/11/20 01:31:21;;;;;;;3.10;1.10;;;;;;;;;;5015156;28;20049;-77
2022/11/20 01:33:50;;;;;;;4.57;1.00;;;;;;;;;;5032028;28;20137;-68
2022/11/20 01:36:17;;;;;;;1.15;1.00;;;;;;;;;;5034908;28;20520;-73
2022/11/20 01:38:43;;;;;;;1.98;0.90;;;;;;;;;;5032011;28;20053;-71
2022/11/20 01:41:10;;;;;;;1.13;0.88;;;;;;;;;;5033646;28;20407;-75
2022/11/20 01:43:36;;;;;;;1.73;0.90;;;;;;;;;;5036025;28;20450;-68
2022/11/20 01:46:08;;;;;;;2.58;1.17;;;;;;;;;;5034750;28;20482;-68
2022/11/20 01:48:54;;;;;;;2.45;1.08;;;;;;;;;;5026257;28;20269;-68
2022/11/20 01:51:41;;;;;;;1.85;1.00;;;;;;;;;;5032381;28;20053;-71
2022/11/20 01:54:16;;;;;;;1.73;1.00;;;;;;;;;;5031105;28;20055;-70
2022/11/20 01:56:45;;;;;;;1.27;0.90;;;;;;;;;;5029822;28;20041;-68
2022/11/20 01:59:15;;;;;;;1.00;0.90;;;;;;;;;;5036958;28;20045;-73
2022/11/20 02:01:41;;;;;;;3.03;1.10;;;;;;;;;;5035093;28;20100;-74
2022/11/20 02:04:08;;;;;;;1.55;1.00;;;;;;;;;;5031062;28;21421;-71
2022/11/20 02:06:44;;;;;;;2.17;1.02;;;;;;;;;;5032863;28;20060;-69
2022/11/20 02:09:11;;;;;;;1.55;0.90;;;;;;;;;;5027734;28;20447;-71
2022/11/20 02:11:37;;;;;;;1.85;1.23;;;;;;;;;;5042217;28;20486;-70
2022/11/20 02:14:03;;;;;;;2.63;1.17;;;;;;;;;;5034087;28;20048;-72
2022/11/20 02:16:43;;;;;;;1.85;0.90;;;;;;;;;;5037533;28;20415;-73
2022/11/20 02:19:19;;;;;;;2.40;1.10;;;;;;;;;;5035417;28;20146;-77
2022/11/20 02:22:05;;;;;;;2.65;1.10;;;;;;;;;;5014167;28;20053;-70
2022/11/20 02:24:31;;;;;;;1.63;0.90;;;;;;;;;;5030664;28;20060;-71
2022/11/20 02:27:01;;;;;;;2.33;1.20;;;;;;;;;;5032992;28;20044;-75
2022/11/20 02:29:39;;;;;;;2.17;1.10;;;;;;;;;;5030733;28;20611;-75
2022/11/20 02:32:05;;;;;;;1.73;1.02;;;;;;;;;;5033473;28;20048;-74
2022/11/20 02:34:31;;;;;;;2.65;1.10;;;;;;;;;;5032468;28;20055;-73
2022/11/20 02:36:58;;;;;;;3.88;0.93;;;;;;;;;;5035480;28;20037;-76
2022/11/20 02:39:27;;;;;;;3.80;1.20;;;;;;;;;;5026641;28;20052;-73
2022/11/20 02:41:55;;;;;;;1.83;0.90;;;;;;;;;;5035102;28;20118;-70
2022/11/20 02:44:21;;;;;;;1.42;0.90;;;;;;;;;;5030628;28;20048;-75
2022/11/20 02:46:47;;;;;;;3.92;0.98;;;;;;;;;;5034142;28;20071;-69
2022/11/20 02:49:13;;;;;;;2.17;0.98;;;;;;;;;;5034751;28;20057;-69
2022/11/20 02:51:39;;;;;;;1.67;0.85;;;;;;;;;;5039292;28;20045;-69
2022/11/20 02:54:05;;;;;;;3.25;0.70;;;;;;;;;;5037802;28;20044;-73
2022/11/20 02:56:31;;;;;;;3.10;0.90;;;;;;;;;;5035375;28;20541;-71
2022/11/20 02:58:57;;;;;;;1.67;0.80;;;;;;;;;;5029481;28;20139;-74
2022/11/20 03:01:22;;;;;;;3.63;1.05;;;;;;;;;;5037359;28;20076;-72
2022/11/20 03:03:49;;;;;;;1.48;0.70;;;;;;;;;;5033319;28;20151;-70
2022/11/20 03:06:17;;;;;;;3.17;0.80;;;;;;;;;;5038178;28;20458;-69
2022/11/20 03:08:44;;;;;;;2.55;0.93;;;;;;;;;;5033262;28;20073;-69
2022/11/20 03:11:09;;;;;;;1.02;0.70;;;;;;;;;;5028032;28;20048;-71
2022/11/20 03:13:35;;;;;;;0.90;0.70;;;;;;;;;;5021335;28;20572;-73
2022/11/20 03:16:21;;;;;;;1.63;0.80;;;;;;;;;;5042374;28;20049;-72
2022/11/20 03:18:48;;;;;;;1.25;0.75;;;;;;;;;;5037218;28;20332;-77
2022/11/20 03:21:16;;;;;;;2.22;1.17;;;;;;;;;;5038004;28;20095;-68
2022/11/20 03:23:42;;;;;;;1.88;1.00;;;;;;;;;;5039668;28;20073;-72
2022/11/20 03:26:23;;;;;;;1.40;1.10;;;;;;;;;;5036929;28;20053;-73
2022/11/20 03:28:58;;;;;;;2.70;1.10;;;;;;;;;;5031657;28;20494;-72
2022/11/20 03:31:25;;;;;;;;;;;;;;;;;;5022854;28;20103;-76
2022/11/20 03:33:51;;;;;;;3.38;1.02;;;;;;;;;;5032167;28;19924;-68
2022/11/20 03:36:19;;;;;;;1.05;0.70;;;;;;;;;;5038041;28;20230;-72
2022/11/20 03:38:45;;;;;;;1.95;1.05;;;;;;;;;;5037670;28;20049;-73
2022/11/20 03:41:18;;;;;;;2.38;1.00;;;;;;;;;;5043929;28;20049;-74
2022/11/20 03:43:52;;;;;;;1.55;0.90;;;;;;;;;;5036000;28;20064;-71
2022/11/20 03:46:18;;;;;;;3.65;1.10;;;;;;;;;;5045611;28;20112;-68
2022/11/20 03:48:44;;;;;;;3.72;1.20;;;;;;;;;;5036993;28;20128;-70
2022/11/20 03:51:18;;;;;;;0.85;0.70;;;;;;;;;;5038050;28;20075;-69
2022/11/20 03:53:46;;;;;;;6.65;0.88;;;;;;;;;;5037792;28;20052;-74
2022/11/20 03:56:14;;;;;;;1.73;0.80;;;;;;;;;;5038595;28;20175;-71
2022/11/20 03:58:41;;;;;;;0.90;0.80;;;;;;;;;;5031469;28;20518;-74
2022/11/20 04:01:12;;;;;;;1.33;0.68;;;;;;;;;;5041179;28;20311;-70
2022/11/20 04:03:40;;;;;;;1.30;0.60;;;;;;;;;;5036770;28;20079;-69
2022/11/20 04:06:09;;;;;;;3.72;1.00;;;;;;;;;;5040333;28;20049;-76
2022/11/20 04:08:36;;;;;;;1.60;0.70;;;;;;;;;;5031199;28;20609;-69
2022/11/20 04:11:16;;;;;;;1.30;0.80;;;;;;;;;;5038606;28;20127;-77
2022/11/20 04:13:47;;;;;;;0.85;0.63;;;;;;;;;;5032881;28;20118;-70
2022/11/20 04:16:13;;;;;;;1.75;1.10;;;;;;;;;;5040763;28;20056;-67
2022/11/20 04:18:39;;;;;;;2.17;1.00;;;;;;;;;;5033990;28;21765;-75
2022/11/20 04:21:06;;;;;;;1.95;0.82;;;;;;;;;;5036633;28;20087;-75
2022/11/20 04:23:32;;;;;;;0.60;0.60;;;;;;;;;;5016306;28;20052;-72
2022/11/20 04:26:07;;;;;;;1.10;0.60;;;;;;;;;;5022595;28;20094;-73
2022/11/20 04:28:34;;;;;;;2.08;0.63;;;;;;;;;;5033944;28;20131;-77
2022/11/20 04:31:05;;;;;;;1.70;0.73;;;;;;;;;;5034575;28;20053;-77
2022/11/20 04:33:31;;;;;;;1.75;0.63;;;;;;;;;;5036174;28;20064;-67
2022/11/20 04:36:03;;;;;;;1.00;0.55;;;;;;;;;;5036074;28;20041;-76
2022/11/20 04:38:30;;;;;;;0.77;0.60;;;;;;;;;;5038155;28;20057;-75
2022/11/20 04:41:00;;;;;;;2.05;0.70;;;;;;;;;;5039444;28;20431;-70
2022/11/20 04:43:27;;;;;;;0.88;0.70;;;;;;;;;;5032112;28;20052;-72
2022/11/20 04:45:57;;;;;;;0.65;0.63;;;;;;;;;;5037449;28;20050;-73
2022/11/20 04:48:24;;;;;;;1.02;0.80;;;;;;;;;;5033729;28;20307;-70
2022/11/20 04:50:50;;;;;;;0.80;0.70;;;;;;;;;;5037969;28;20406;-71
2022/11/20 04:53:16;;;;;;;1.17;0.70;;;;;;;;;;5037908;28;20045;-71
2022/11/20 04:55:42;;;;;;;1.88;0.82;;;;;;;;;;5038026;28;20049;-68
2022/11/20 04:58:08;;;;;;;0.93;0.70;;;;;;;;;;5033395;28;20053;-73
2022/11/20 05:00:34;;;;;;;0.98;0.75;;;;;;;;;;5039287;28;20057;-77
2022/11/20 05:03:00;;;;;;;1.00;0.80;;;;;;;;;;5033058;28;20075;-74
2022/11/20 05:05:26;;;;;;;2.42;0.73;;;;;;;;;;5037460;28;20800;-77
2022/11/20 05:07:52;;;;;;;1.15;0.75;;;;;;;;;;5036647;28;20422;-71
2022/11/20 05:10:18;;;;;;;2.20;0.90;;;;;;;;;;5029816;28;20045;-74
2022/11/20 05:12:44;;;;;;;1.70;0.80;;;;;;;;;;5041046;28;20053;-71
2022/11/20 05:15:10;;;;;;;2.95;0.85;;;;;;;;;;5034587;28;20091;-74
2022/11/20 05:17:36;;;;;;;1.38;0.80;;;;;;;;;;5038263;28;20053;-77
2022/11/20 05:20:02;;;;;;;0.85;0.70;;;;;;;;;;5037953;28;20052;-73
2022/11/20 05:22:28;;;;;;;1.48;0.80;;;;;;;;;;5032804;28;20429;-73
2022/11/20 05:24:53;;;;;;;1.48;0.70;;;;;;;;;;5039277;28;20052;-69
2022/11/20 05:27:19;;;;;;;1.80;0.80;;;;;;;;;;5037963;28;20049;-74
2022/11/20 05:29:45;;;;;;;1.92;0.90;;;;;;;;;;5036841;28;20233;-67
2022/11/20 05:32:11;;;;;;;1.00;0.70;;;;;;;;;;5042601;28;20318;-70
2022/11/20 05:34:37;;;;;;;2.47;0.80;;;;;;;;;;5040518;28;20051;-73
2022/11/20 05:37:03;;;;;;;1.00;0.80;;;;;;;;;;5034741;28;20406;-72
2022/11/20 05:39:29;;;;;;;1.33;0.70;;;;;;;;;;5031757;28;20102;-69
2022/11/20 05:44:39;;;;;;;1.10;0.90;;;;;;;;;;5031124;28;20145;-74
2022/11/20 05:47:05;;;;;;;1.38;0.70;;;;;;;;;;5040061;28;20044;-69
2022/11/20 05:49:32;;;;;;;2.33;0.85;;;;;;;;;;5038478;28;20056;-76
2022/11/20 05:51:58;;;;;;;0.70;0.60;;;;;;;;;;5035323;28;20057;-71
2022/11/20 05:54:24;;;;;;;2.58;0.70;;;;;;;;;;5033536;28;20061;-67
2022/11/20 05:56:50;;;;;;;1.20;0.70;;;;;;;;;;5035237;28;20052;-73
2022/11/20 05:59:15;;;;;;;1.80;0.80;;;;;;;;;;5034239;28;20056;-74
2022/11/20 06:01:42;;;;;;;2.67;0.70;;;;;;;;;;5034263;28;20052;-67
2022/11/20 06:04:07;;;;;;;1.33;0.70;;;;;;;;;;5034288;28;20052;-79
2022/11/20 06:06:33;;;;;;;2.13;1.15;;;;;;;;;;5034712;28;20060;-78
2022/11/20 06:08:59;;;;;;;1.40;0.80;;;;;;;;;;5043039;28;20037;-70
2022/11/20 06:11:25;;;;;;;1.88;0.70;;;;;;;;;;5044262;28;20120;-70
2022/11/20 06:13:51;;;;;;;4.13;0.93;;;;;;;;;;5041554;28;20198;-69
2022/11/20 06:16:19;;;;;;;1.23;0.70;;;;;;;;;;5034883;28;20061;-76
2022/11/20 06:18:46;;;;;;;2.05;0.77;;;;;;;;;;5031324;28;20052;-71
2022/11/20 06:21:15;;;;;;;1.00;0.70;;;;;;;;;;5038831;28;20071;-68
2022/11/20 06:23:42;;;;;;;2.95;0.77;;;;;;;;;;5039751;28;20151;-68
2022/11/20 06:26:13;;;;;;;2.92;0.88;;;;;;;;;;5038423;28;20044;-76
2022/11/20 06:28:39;;;;;;;1.05;0.73;;;;;;;;;;5032414;28;20076;-69
2022/11/20 06:31:07;;;;;;;2.78;0.73;;;;;;;;;;5039438;28;20056;-70
2022/11/20 06:33:33;;;;;;;0.82;0.60;;;;;;;;;;5041424;28;20059;-78
2022/11/20 06:36:00;;;;;;;1.30;0.65;;;;;;;;;;5038997;28;20546;-72
2022/11/20 06:38:27;;;;;;;1.50;0.60;;;;;;;;;;5035666;28;20049;-74
2022/11/20 06:40:54;;;;;;;2.38;0.80;;;;;;;;;;5036161;28;20044;-71
2022/11/20 06:43:22;;;;;;;1.70;0.80;;;;;;;;;;5044659;28;20552;-73
2022/11/20 06:45:55;;;;;;;3.80;0.85;;;;;;;;;;5019363;28;20541;-73
2022/11/20 06:48:22;;;;;;;1.85;0.80;;;;;;;;;;5032862;28;20049;-68
2022/11/20 06:50:48;;;;;;;1.58;0.60;;;;;;;;;;5037586;28;20063;-69
2022/11/20 06:53:14;;;;;;;1.33;0.75;;;;;;;;;;5038875;28;20491;-70
2022/11/20 06:55:46;;;;;;;1.73;0.70;;;;;;;;;;5038979;28;20574;-75
2022/11/20 06:58:13;;;;;;;0.93;0.63;;;;;;;;;;5036698;28;20148;-70
2022/11/20 07:00:40;;;;;;;1.42;0.70;;;;;;;;;;5039099;28;20053;-77
2022/11/20 07:03:07;;;;;;;1.85;0.75;;;;;;;;;;5034847;28;20040;-74
2022/11/20 07:05:34;;;;;;;0.70;0.70;;;;;;;;;;5030702;28;20068;-79
2022/11/20 07:07:59;;;;;;;4.82;0.90;;;;;;;;;;5035701;28;20041;-69
2022/11/20 07:10:26;;;;;;;1.73;0.70;;;;;;;;;;5035951;28;20739;-73
2022/11/20 07:12:53;;;;;;;1.98;0.90;;;;;;;;;;5046672;28;20048;-68
2022/11/20 07:15:21;;;;;;;1.63;0.60;;;;;;;;;;5036097;28;20463;-73
2022/11/20 07:17:47;;;;;;;1.73;0.70;;;;;;;;;;5041385;28;20053;-69
2022/11/20 07:20:14;;;;;;;1.88;0.90;;;;;;;;;;5034999;28;20057;-70
2022/11/20 07:22:41;;;;;;;2.13;0.60;;;;;;;;;;5031921;28;20057;-76
2022/11/20 07:25:07;;;;;;;0.98;0.60;;;;;;;;;;5031088;28;20745;-78
2022/11/20 07:27:34;;;;;;;1.85;0.85;;;;;;;;;;5025111;28;20068;-70
2022/11/20 07:30:00;;;;;;;1.50;0.80;;;;;;;;;;5019940;28;20052;-70
2022/11/20 07:32:26;;;;;;;1.17;0.57;;;;;;;;;;5030347;28;20071;-70
2022/11/20 07:34:52;;;;;;;2.10;0.70;;;;;;;;;;5036919;28;20524;-71
2022/11/20 07:37:18;;;;;;;2.55;1.00;;;;;;;;;;5035202;28;20044;-72
2022/11/20 07:39:44;;;;;;;2.63;0.73;;;;;;;;;;5033419;28;20044;-69
2022/11/20 07:42:10;;;;;;;0.75;0.55;;;;;;;;;;5037463;28;20222;-72
2022/11/20 07:44:36;;;;;;;3.65;0.70;;;;;;;;;;5036710;28;20060;-70
2022/11/20 07:47:02;;;;;;;1.60;0.70;;;;;;;;;;5035257;28;20262;-70
2022/11/20 07:49:28;;;;;;;1.90;0.68;;;;;;;;;;5034745;28;20048;-78
2022/11/20 07:51:54;;;;;;;0.80;0.70;;;;;;;;;;5034801;28;20972;-71
2022/11/20 07:54:20;;;;;;;3.20;1.33;;;;;;;;;;5035664;28;20064;-71
2022/11/20 07:56:47;;;;;;;0.80;0.60;;;;;;;;;;5040477;28;20250;-68
2022/11/20 07:59:14;;;;;;;2.08;0.73;;;;;;;;;;5031778;28;21210;-72
2022/11/20 08:01:40;;;;;;;2.60;0.70;;;;;;;;;;5013172;28;20095;-70
2022/11/20 08:04:06;;;;;;;1.75;0.45;;;;;;;;;;5020610;28;20547;-76
2022/11/20 08:06:32;;;;;;;1.20;0.60;;;;;;;;;;5035989;28;20053;-75
2022/11/20 08:08:58;;;;;;;1.63;0.70;;;;;;;;;;5034026;28;20071;-75
2022/11/20 08:14:12;;;;;;;2.17;0.60;;;;;;;;;;5016531;28;20060;-78
2022/11/20 08:16:48;;;;;;;4.55;1.10;;;;;;;;;;5038224;28;20058;-70
2022/11/20 08:19:16;;;;;;;2.45;0.77;;;;;;;;;;5032894;28;20064;-72
2022/11/20 08:21:43;;;;;;;1.00;0.75;;;;;;;;;;5035841;28;20585;-73
2022/11/20 08:24:10;;;;;;;1.77;0.80;;;;;;;;;;5035042;28;20150;-78
2022/11/20 08:26:37;;;;;;;1.40;0.60;;;;;;;;;;5030882;28;20049;-74
2022/11/20 08:29:04;;;;;;;0.93;0.47;;;;;;;;;;5023370;28;20048;-80
2022/11/20 08:31:30;;;;;;;1.15;0.95;;;;;;;;;;5031348;28;20087;-76
2022/11/20 08:33:57;;;;;;;0.88;0.70;;;;;;;;;;5033955;28;20044;-72
2022/11/20 08:36:24;;;;;;;0.90;0.70;;;;;;;;;;5027611;28;20053;-74
2022/11/20 08:38:55;;;;;;;2.03;0.80;;;;;;;;;;5032342;28;20045;-76
2022/11/20 08:41:28;;;;;;;1.60;1.00;;;;;;;;;;5034501;28;20053;-71
2022/11/20 08:43:57;;;;;;;2.67;1.10;;;;;;;;;;5024198;28;20079;-70
2022/11/20 08:46:28;;;;;;;2.28;0.80;;;;;;;;;;5029922;28;20044;-73
2022/11/20 08:48:54;;;;;;;1.90;0.80;;;;;;;;;;5034736;28;20271;-76
2022/11/20 08:51:20;;;;;;;1.55;0.90;;;;;;;;;;5015488;28;20052;-75
2022/11/20 08:53:48;;;;;;;1.77;0.90;;;;;;;;;;5037805;28;20575;-73
2022/11/20 08:56:14;;;;;;;2.47;0.70;;;;;;;;;;5040004;28;20056;-73
2022/11/20 08:58:41;;;;;;;1.67;1.00;;;;;;;;;;5037905;28;20544;-76
2022/11/20 09:01:06;;;;;;;3.25;0.90;;;;;;;;;;5023203;28;20041;-79
2022/11/20 09:03:33;;;;;;;1.67;1.10;;;;;;;;;;5037138;28;20040;-68
2022/11/20 09:06:04;;;;;;;1.70;0.95;;;;;;;;;;5038619;28;20415;-75
2022/11/20 09:08:31;;;;;;;3.13;1.23;;;;;;;;;;5038945;28;20430;-78
2022/11/20 09:10:58;;;;;;;0.93;0.80;;;;;;;;;;5040835;28;20141;-72
2022/11/20 09:13:26;;;;;;;1.65;0.80;;;;;;;;;;5037932;28;20037;-78
2022/11/20 09:15:56;;;;;;;2.17;1.40;;;;;;;;;;5039407;28;20059;-74
2022/11/20 09:18:27;;;;;;;3.65;0.85;;;;;;;;;;5036796;28;20045;-75
2022/11/20 09:20:57;;;;;;;5.35;1.23;;;;;;;;;;5035803;28;20048;-75
2022/11/20 09:23:24;;;;;;;3.22;0.82;;;;;;;;;;5040265;28;20148;-76
2022/11/20 09:25:50;;;;;;;2.95;0.90;;;;;;;;;;5039812;28;20168;-83
2022/11/20 09:28:18;;;;;;;1.40;0.73;;;;;;;;;;5039969;28;20049;-75
2022/11/20 09:30:44;;;;;;;0.75;0.55;;;;;;;;;;5044761;28;21988;-70
2022/11/20 09:33:10;;;;;;;1.25;0.70;;;;;;;;;;5032631;28;20230;-81
2022/11/20 09:35:36;;;;;;;0.65;0.60;;;;;;;;;;5048615;28;20048;-75
2022/11/20 09:38:08;;;;;;;2.30;0.80;;;;;;;;;;5038188;28;20052;-75
2022/11/20 09:40:37;;;;;;;1.60;0.90;;;;;;;;;;5042101;28;20049;-78
2022/11/20 09:43:13;;;;;;;2.13;0.90;;;;;;;;;;5037279;28;20060;-70
2022/11/20 09:45:44;;;;;;;1.45;0.90;;;;;;;;;;5046510;28;20060;-73
2022/11/20 09:48:36;;;;;;;2.42;0.85;;;;;;;;;;5036526;28;20057;-73
2022/11/20 09:51:08;;;;;;;0.60;0.57;;;;;;;;;;5036543;28;20049;-79
2022/11/20 09:53:46;;;;;;;1.90;0.80;;;;;;;;;;5039379;28;20044;-73
2022/11/20 09:56:13;;;;;;;1.42;0.85;;;;;;;;;;5038214;28;20421;-73
2022/11/20 09:58:47;;;;;;;1.30;0.80;;;;;;;;;;5032964;28;20045;-74
2022/11/20 10:01:19;;;;;;;1.95;1.00;;;;;;;;;;5039172;28;20543;-77
2022/11/20 10:04:21;;;;;;;1.95;0.70;;;;;;;;;;5041211;28;20694;-75
2022/11/20 10:07:20;;;;;;;1.77;0.85;;;;;;;;;;5036566;28;20131;-73
2022/11/20 10:09:56;;;;;;;6.93;2.83;;;;;;;;;;5024243;28;20056;-75
2022/11/20 10:12:51;;;;;;;2.33;1.00;;;;;;;;;;5041023;28;20565;-71
2022/11/20 10:15:43;;;;;;;2.75;1.10;;;;;;;;;;5026970;28;20053;-74
2022/11/20 10:18:19;;;;;;;1.63;1.00;;;;;;;;;;4970494;28;20052;-71
2022/11/20 10:21:13;;;;;;;1.27;0.93;;;;;;;;;;4961286;28;20054;-73
2022/11/20 10:23:57;;;;;;;3.22;0.82;;;;;;;;;;4964196;28;20058;-80
2022/11/20 10:26:49;;;;;;;2.15;1.17;;;;;;;;;;4964817;28;20491;-72
2022/11/20 10:29:21;;;;;;;3.22;0.90;;;;;;;;;;4965565;28;20077;-78
2022/11/20 10:32:02;;;;;;;1.80;1.00;;;;;;;;;;4976597;28;20057;-80
2022/11/20 10:34:34;;;;;;;5.10;1.27;;;;;;;;;;4968189;28;20104;-76
2022/11/20 10:37:15;;;;;;;3.60;1.10;;;;;;;;;;4965614;28;20054;-83
2022/11/20 10:39:59;;;;;;;1.63;0.73;;;;;;;;;;4963427;28;20062;-77
2022/11/20 10:42:37;;;;;;;2.55;0.73;;;;;;;;;;4970097;28;20240;-72
2022/11/20 10:45:32;;;;;;;0.93;0.68;;;;;;;;;;4965348;28;20149;-79
2022/11/20 10:48:01;;;;;;;1.30;0.60;;;;;;;;;;4959591;28;20057;-74
2022/11/20 10:50:28;;;;;;;0.75;0.65;;;;;;;;;;4962512;28;20051;-74
2022/11/20 10:53:22;;;;;;;1.23;0.73;;;;;;;;;;4968257;28;20069;-72
2022/11/20 10:55:58;;;;;;;1.58;1.00;;;;;;;;;;5017174;28;20057;-73
2022/11/20 10:58:47;;;;;;;3.58;1.13;;;;;;;;;;5033481;28;20932;-73
2022/11/20 11:01:21;;;;;;;1.13;0.80;;;;;;;;;;5018710;28;20076;-73
2022/11/20 11:03:48;;;;;;;2.80;0.80;;;;;;;;;;5029307;28;20058;-81
2022/11/20 11:06:33;;;;;;;0.80;0.80;;;;;;;;;;5034418;28;20052;-70
2022/11/20 11:09:04;;;;;;;1.15;0.90;;;;;;;;;;5039785;28;20433;-83
2022/11/20 11:11:32;;;;;;;3.50;1.00;;;;;;;;;;5037225;28;20123;-77
2022/11/20 11:14:13;;;;;;;7.97;3.03;;;;;;;;;;5020632;28;20108;-76
2022/11/20 11:17:00;;;;;;;1.58;0.80;;;;;;;;;;5036932;28;20433;-80
2022/11/20 11:19:27;;;;;;;2.22;0.70;;;;;;;;;;5034126;28;20064;-77
2022/11/20 11:21:57;;;;;;;2.53;1.05;;;;;;;;;;5045284;28;20395;-76
2022/11/20 11:24:29;;;;;;;1.25;0.88;;;;;;;;;;5048610;28;20076;-80
2022/11/20 11:27:04;;;;;;;4.07;0.90;;;;;;;;;;5042518;28;20048;-73
2022/11/20 11:29:31;;;;;;;1.77;1.00;;;;;;;;;;5046237;28;20056;-72
2022/11/20 11:32:08;;;;;;;2.45;1.08;;;;;;;;;;5030359;28;21964;-72
2022/11/20 11:34:34;;;;;;;4.50;1.00;;;;;;;;;;5043615;28;20483;-72
2022/11/20 11:37:03;;;;;;;2.17;0.95;;;;;;;;;;5040890;28;20044;-79
2022/11/20 11:39:31;;;;;;;3.30;0.80;;;;;;;;;;5040035;28;20053;-77
2022/11/20 11:41:58;;;;;;;3.80;2.13;;;;;;;;;;5044083;28;20052;-71
2022/11/20 11:47:32;;;;;;;3.00;1.15;;;;;;;;;;5050084;28;20105;-75
2022/11/20 11:50:20;;;;;;;7.82;1.02;;;;;;;;;;5043132;28;20051;-77
2022/11/20 11:53:21;;;;;;;6.60;0.90;;;;;;;;;;5041155;28;20049;-78
2022/11/20 11:55:58;;;;;;;1.13;0.80;;;;;;;;;;5010611;28;20466;-70
2022/11/20 11:58:43;;;;;;;2.97;1.00;;;;;;;;;;5029836;28;20312;-74
2022/11/20 12:01:29;;;;;;;1.73;0.93;;;;;;;;;;5034524;28;20053;-78
2022/11/20 12:04:04;;;;;;;1.90;1.00;;;;;;;;;;5039573;28;20129;-71
2022/11/20 12:06:32;;;;;;;2.88;0.80;;;;;;;;;;5041609;28;20045;-73
2022/11/20 12:09:05;;;;;;;1.17;0.90;;;;;;;;;;5032734;28;20052;-67
2022/11/20 12:11:43;;;;;;;1.58;0.90;;;;;;;;;;5028565;28;20049;-71
2022/11/20 12:14:28;;;;;;;2.35;0.98;;;;;;;;;;5021572;28;20057;-75
2022/11/20 12:16:57;;;;;;;5.57;1.88;;;;;;;;;;5038888;28;21511;-68
2022/11/20 12:19:24;;;;;;;1.48;1.10;;;;;;;;;;5032353;28;20057;-69
2022/11/20 12:22:18;;;;;;;3.72;0.98;;;;;;;;;;5040949;28;20033;-69
2022/11/20 12:25:11;;;;;;;0.55;0.50;;;;;;;;;;5036939;28;20053;-72
2022/11/20 12:28:04;;;;;;;1.52;0.77;;;;;;;;;;5031256;28;20719;-75
2022/11/20 12:30:35;;;;;;;1.55;0.50;;;;;;;;;;5029627;28;20041;-78
2022/11/20 12:33:24;;;;;;;1.05;0.43;;;;;;;;;;5033821;28;20858;-76
2022/11/20 12:35:52;;;;;;;1.40;0.82;;;;;;;;;;5044735;28;20082;-70
2022/11/20 12:38:40;;;;;;;1.70;1.30;;;;;;;;;;5032364;28;20382;-75
2022/11/20 12:47:48;;;;;;;0.85;0.45;;;;;;;;;;5039777;28;20472;-75
2022/11/20 12:50:17;;;;;;;0.70;0.60;;;;;;;;;;5034479;28;20072;-70
2022/11/20 12:53:09;;;;;;;1.20;0.60;;;;;;;;;;5039222;28;20162;-75
2022/11/20 12:56:03;;;;;;;2.88;0.90;;;;;;;;;;5027813;28;20094;-74
2022/11/20 12:58:37;;;;;;;1.98;0.90;;;;;;;;;;5015020;28;20060;-71
2022/11/20 13:01:40;;;;;;;1.40;0.85;;;;;;;;;;5032005;28;20049;-71
2022/11/20 13:04:18;;;;;;;4.95;1.30;;;;;;;;;;5026885;28;20067;-71
2022/11/20 13:06:45;;;;;;;1.33;0.90;;;;;;;;;;5037966;28;20620;-74
2022/11/20 13:09:14;;;;;;;1.08;0.70;;;;;;;;;;5035177;28;20053;-72
2022/11/20 13:11:58;;;;;;;1.77;0.73;;;;;;;;;;5020133;28;20044;-69
2022/11/20 13:14:31;;;;;;;;;;;;;;;;;;5035392;28;20402;-71
2022/11/20 13:17:11;;;;;;;2.88;1.10;;;;;;;;;;5028517;28;19963;-70
2022/11/20 13:19:38;;;;;;;2.72;1.30;;;;;;;;;;5037672;28;20063;-71
2022/11/20 13:22:04;;;;;;;2.45;1.25;;;;;;;;;;5039709;28;20040;-75
2022/11/20 13:24:32;;;;;;;2.17;1.20;;;;;;;;;;5035704;28;20090;-72
2022/11/20 13:27:07;;;;;;;1.95;0.90;;;;;;;;;;5040167;28;20078;-76
2022/11/20 13:29:35;;;;;;;1.40;0.93;;;;;;;;;;5013720;28;20064;-73
2022/11/20 13:32:14;;;;;;;2.00;0.85;;;;;;;;;;5032690;28;20112;-72
2022/11/20 13:35:01;;;;;;;2.75;1.20;;;;;;;;;;5018643;28;20751;-74
2022/11/20 13:37:38;;;;;;;2.67;0.90;;;;;;;;;;5037799;28;20053;-76
2022/11/20 13:40:12;;;;;;;3.20;1.30;;;;;;;;;;5031855;28;20513;-73
2022/11/20 13:42:54;;;;;;;2.05;1.00;;;;;;;;;;5033888;28;20072;-75
2022/11/20 13:45:28;;;;;;;1.10;0.80;;;;;;;;;;5035809;28;20229;-75
2022/11/20 13:47:56;;;;;;;1.35;0.77;;;;;;;;;;5039804;28;20045;-72
2022/11/20 13:50:48;;;;;;;2.40;0.80;;;;;;;;;;5040868;28;20049;-74
2022/11/20 13:53:42;;;;;;;1.88;0.90;;;;;;;;;;5037683;28;20107;-73
2022/11/20 13:56:24;;;;;;;1.83;1.00;;;;;;;;;;5033316;28;20037;-72
2022/11/20 13:59:11;;;;;;;6.15;1.23;;;;;;;;;;5033284;28;20059;-74
2022/11/20 14:01:37;;;;;;;1.55;0.90;;;;;;;;;;5031826;28;20076;-75
2022/11/20 14:04:09;;;;;;;2.70;0.93;;;;;;;;;;5035319;28;20529;-74
2022/11/20 14:06:46;;;;;;;1.92;0.90;;;;;;;;;;5032585;28;20454;-75
2022/11/20 14:09:26;;;;;;;3.47;1.30;;;;;;;;;;5028580;28;20048;-74
2022/11/20 14:11:52;;;;;;;2.50;1.52;;;;;;;;;;5034054;28;20040;-73
2022/11/20 14:14:21;;;;;;;3.97;1.40;;;;;;;;;;5035062;28;20715;-75
2022/11/20 14:16:48;;;;;;;2.28;1.35;;;;;;;;;;5017139;28;20103;-71
2022/11/20 14:19:28;;;;;;;1.88;1.30;;;;;;;;;;5032448;28;20063;-72
2022/11/20 14:22:07;;;;;;;1.52;0.80;;;;;;;;;;5034248;28;20049;-74
2022/11/20 14:24:33;;;;;;;3.20;1.10;;;;;;;;;;5032459;28;20057;-75
2022/11/20 14:26:59;;;;;;;1.67;0.90;;;;;;;;;;5045616;28;20056;-72
2022/11/20 14:29:36;;;;;;;3.88;1.40;;;;;;;;;;5035819;28;20057;-75
2022/11/20 14:32:03;;;;;;;3.53;2.25;;;;;;;;;;5036878;28;20053;-75
2022/11/20 14:34:33;;;;;;;2.67;1.63;;;;;;;;;;5035250;28;20052;-74
2022/11/20 14:37:01;;;;;;;2.40;1.65;;;;;;;;;;5044703;28;20159;-75
2022/11/20 14:39:34;;;;;;;2.35;1.27;;;;;;;;;;5034940;28;20667;-75
2022/11/20 14:41:59;;;;;;;2.50;1.13;;;;;;;;;;5032386;28;20064;-76
2022/11/20 14:44:33;;;;;;;2.78;0.80;;;;;;;;;;5034693;28;20041;-73
2022/11/20 14:47:03;;;;;;;1.23;0.75;;;;;;;;;;5038202;28;20033;-74
2022/11/20 14:49:31;;;;;;;7.28;1.60;;;;;;;;;;5043473;28;20048;-74
2022/11/20 14:52:17;;;;;;;2.17;1.10;;;;;;;;;;5045465;28;20441;-76
2022/11/20 14:54:48;;;;;;;1.90;0.90;;;;;;;;;;5041363;28;20056;-74
2022/11/20 14:57:31;;;;;;;1.58;1.00;;;;;;;;;;5018391;28;20062;-75
2022/11/20 15:00:27;;;;;;;2.90;0.85;;;;;;;;;;5043657;28;20068;-75
2022/11/20 15:02:53;;;;;;;1.40;0.90;;;;;;;;;;5027308;28;21968;-72
2022/11/20 15:05:23;;;;;;;1.60;0.63;;;;;;;;;;5037771;28;20114;-74
2022/11/20 15:08:07;;;;;;;2.58;0.90;;;;;;;;;;5042175;28;20051;-72
2022/11/20 15:10:34;;;;;;;1.65;0.90;;;;;;;;;;5037046;28;20053;-74
2022/11/20 15:13:04;;;;;;;0.95;0.70;;;;;;;;;;5034537;28;20467;-74
2022/11/20 15:15:35;;;;;;;1.13;0.70;;;;;;;;;;5037229;28;20052;-77
2022/11/20 15:18:02;;;;;;;3.58;1.00;;;;;;;;;;5040820;28;20407;-75
2022/11/20 15:20:32;;;;;;;1.92;0.82;;;;;;;;;;5036214;28;20057;-73
2022/11/20 15:22:58;;;;;;;3.17;1.60;;;;;;;;;;5043071;28;20556;-75